Madison, NY

10:56 AM EDT on July 24, 2016 (GMT -0400)
FES Installations, Inc. | | Change Station

Elev 1181 ft 42.89 °N, 75.54 °W | Updated 14 seconds ago

Clear
Clear
77.0 °F
Feels Like 79 °F
N
8.7
Wind Variable Wind from NNW
Gusts 12.3 mph

Today
High -- | Low -- °F
--% Chance of Precip.
Yesterday
High -- | Low -- °F
Precip. -- in
Pressure 30.03 in
Visibility 10.0 miles
Clouds Clear
Heat Index 79 °F
Dew Point 71 °F
Humidity 81%
Rainfall 0.00 in
Snow Depth Not available.
5:45 AM 8:30 PM
Waning Gibbous, 75% visible
METAR KRME 241453Z 27007KT 10SM CLR 24/17 A3004 RMK AO2 SLP167 T02440172 58004
Pressure 30.03 in
Visibility 10.0 miles
Clouds Clear
Heat Index 79 °F
Dew Point 71 °F
Humidity 81%
Rainfall 0.00 in
Snow Depth Not available.
5:45 AM 8:30 PM
Waning Gibbous, 75% visible
METAR KRME 241453Z 27007KT 10SM CLR 24/17 A3004 RMK AO2 SLP167 T02440172 58004

10-Day Weather Forecast

Almanac

Astronomy

Jul. 24, 2016 Rise Set
Actual Time
Civil Twilight
Nautical Twilight
Astronomical Twilight
Moon
Length of Visible Light
Length of Day
Tomorrow will be .
, % of the Moon is Illuminated

Today's Extremes

State Highs State Lows

Community

WunderPhotos

Upload Photos

1,927,071 photos uploaded!

WunderBlog® & News

Nearby

Air Quality

  Air Quality AQ Index Pollutant
Not available.

Snow Depth

Station Depth Elevation

Earthquake Activity

City Distance Mag. Time & Date
Minimum magnitude displayed is 2.5.

Coastal Water Temperatures

Place Temperature

Stations

Nearby Weather Stations

Station Location Temp. Windchill Dew Point Humidity Wind Precip. Elev Updated Type
                   

Watches & Warnings

There are currently no watches in effect.